createdAt,value
2018-02-11T00:00:20.056Z,0
2018-02-11T00:01:21.437Z,0
2018-02-11T00:02:22.873Z,0
2018-02-11T00:03:24.396Z,0
2018-02-11T00:04:25.795Z,0
2018-02-11T00:05:27.172Z,0
2018-02-11T00:06:28.648Z,0
2018-02-11T00:07:30.184Z,0
2018-02-11T00:08:31.697Z,0
2018-02-11T00:09:33.110Z,0
2018-02-11T00:10:34.506Z,0
2018-02-11T00:11:35.927Z,0
2018-02-11T00:12:37.350Z,0
2018-02-11T00:13:38.755Z,0
2018-02-11T00:14:40.144Z,0
2018-02-11T00:15:41.519Z,0
2018-02-11T00:16:42.942Z,0
2018-02-11T00:17:44.497Z,0
2018-02-11T00:18:45.947Z,0
2018-02-11T00:19:47.387Z,0
2018-02-11T00:20:48.852Z,0
2018-02-11T00:21:50.254Z,0
2018-02-11T00:22:51.710Z,0
2018-02-11T00:23:53.162Z,0
2018-02-11T00:24:54.587Z,0
2018-02-11T00:25:56.030Z,0
2018-02-11T00:26:57.434Z,0
2018-02-11T00:27:58.954Z,0
2018-02-11T00:29:00.476Z,0
2018-02-11T00:30:01.874Z,0
2018-02-11T00:31:03.351Z,0
2018-02-11T00:32:04.774Z,0
2018-02-11T00:33:06.375Z,0
2018-02-11T00:34:07.898Z,0
2018-02-11T00:35:09.277Z,0
2018-02-11T00:36:10.724Z,0
2018-02-11T00:37:12.077Z,0
2018-02-11T00:38:13.736Z,0
2018-02-11T00:39:15.482Z,0
2018-02-11T00:40:16.898Z,0
2018-02-11T00:41:18.360Z,0
2018-02-11T00:42:19.779Z,0
2018-02-11T00:43:21.181Z,0
2018-02-11T00:44:22.790Z,0
2018-02-11T00:45:24.322Z,0
2018-02-11T00:46:25.765Z,0
2018-02-11T00:47:27.142Z,0
2018-02-11T00:48:28.676Z,0
2018-02-11T00:49:30.585Z,0
2018-02-11T00:50:31.983Z,0
2018-02-11T00:51:33.433Z,0
2018-02-11T00:52:34.868Z,0
2018-02-11T00:53:36.398Z,0
2018-02-11T00:54:37.789Z,0
2018-02-11T00:55:39.220Z,0
2018-02-11T00:56:41.006Z,0
2018-02-11T00:57:42.368Z,0
2018-02-11T00:58:43.770Z,0
2018-02-11T00:59:45.167Z,0
2018-02-11T01:00:46.673Z,0
2018-02-11T01:01:48.354Z,0
2018-02-11T01:02:50.145Z,0
2018-02-11T01:03:53.953Z,0
2018-02-11T01:04:57.300Z,0
2018-02-11T01:05:58.733Z,0
2018-02-11T01:07:00.194Z,0
2018-02-11T01:08:01.789Z,0
2018-02-11T01:09:03.502Z,0
2018-02-11T01:10:05.012Z,0
2018-02-11T01:11:06.558Z,0
2018-02-11T01:12:08.523Z,0
2018-02-11T01:13:09.939Z,0
2018-02-11T01:14:11.342Z,0
2018-02-11T01:15:12.779Z,0
2018-02-11T01:16:14.954Z,0
2018-02-11T01:17:16.490Z,0
2018-02-11T01:18:17.882Z,0
2018-02-11T01:19:19.328Z,0
2018-02-11T01:20:20.747Z,0
2018-02-11T01:21:22.172Z,0
2018-02-11T01:22:23.589Z,0
2018-02-11T01:23:25.107Z,0
2018-02-11T01:24:26.789Z,0
2018-02-11T01:25:28.188Z,0
2018-02-11T01:26:29.717Z,0
2018-02-11T01:27:31.066Z,0
2018-02-11T01:28:32.468Z,0
2018-02-11T01:29:33.998Z,0
2018-02-11T01:30:35.461Z,0
2018-02-11T01:31:37.007Z,0
2018-02-11T01:32:38.796Z,0
2018-02-11T01:33:40.339Z,0
2018-02-11T01:34:41.820Z,0
2018-02-11T01:35:43.268Z,0
2018-02-11T01:36:44.721Z,0
2018-02-11T01:37:46.102Z,0
2018-02-11T01:38:47.527Z,0
2018-02-11T01:39:48.928Z,0
2018-02-11T01:40:50.346Z,0
2018-02-11T01:41:51.765Z,0
2018-02-11T01:42:53.172Z,0
2018-02-11T01:43:54.604Z,0
2018-02-11T01:44:55.991Z,0
2018-02-11T01:45:57.431Z,0
2018-02-11T01:46:58.857Z,0
2018-02-11T01:48:00.449Z,0
2018-02-11T01:49:01.854Z,0
2018-02-11T01:50:03.552Z,0
2018-02-11T01:51:04.974Z,0
2018-02-11T01:52:06.366Z,0
2018-02-11T01:53:07.778Z,0
2018-02-11T01:54:09.298Z,0
2018-02-11T01:55:10.729Z,0
2018-02-11T01:56:12.118Z,0
2018-02-11T01:57:13.584Z,0
2018-02-11T01:58:14.967Z,0
2018-02-11T01:59:16.432Z,0
2018-02-11T02:00:17.888Z,0
2018-02-11T02:01:19.282Z,0
2018-02-11T02:02:20.641Z,0
2018-02-11T02:03:22.132Z,0
2018-02-11T02:04:24.411Z,0
2018-02-11T02:05:25.795Z,0
2018-02-11T02:06:27.200Z,0
2018-02-11T02:07:28.836Z,0
2018-02-11T02:08:30.228Z,0
2018-02-11T02:09:31.665Z,0
2018-02-11T02:10:33.357Z,0
2018-02-11T02:11:34.783Z,0
2018-02-11T02:12:36.202Z,0
2018-02-11T02:13:37.639Z,0
2018-02-11T02:14:39.080Z,0
2018-02-11T02:15:40.506Z,0
2018-02-11T02:16:41.926Z,0
2018-02-11T02:17:43.576Z,0
2018-02-11T02:18:45.171Z,0
2018-02-11T02:19:46.741Z,0
2018-02-11T02:20:48.229Z,0
2018-02-11T02:21:49.804Z,0
2018-02-11T02:22:51.303Z,0
2018-02-11T02:23:52.770Z,0
2018-02-11T02:24:54.305Z,0
2018-02-11T02:25:55.803Z,0
2018-02-11T02:26:57.251Z,0
2018-02-11T02:27:58.679Z,0
2018-02-11T02:29:00.075Z,0
2018-02-11T02:30:01.457Z,0
2018-02-11T02:31:02.939Z,0
2018-02-11T02:32:04.335Z,0
2018-02-11T02:33:05.746Z,0
2018-02-11T02:34:07.137Z,0
2018-02-11T02:35:08.617Z,0
2018-02-11T02:36:09.979Z,0
2018-02-11T02:37:11.500Z,0
2018-02-11T02:38:13.052Z,0
2018-02-11T02:39:14.501Z,0
2018-02-11T02:40:15.897Z,0
2018-02-11T02:41:17.307Z,0
2018-02-11T02:42:18.756Z,0
2018-02-11T02:43:20.125Z,0
2018-02-11T02:44:21.557Z,0
2018-02-11T02:45:22.925Z,0
2018-02-11T02:46:24.305Z,0
2018-02-11T02:47:25.744Z,0
2018-02-11T02:48:27.303Z,0
2018-02-11T02:49:28.767Z,0
2018-02-11T02:50:30.508Z,0
2018-02-11T02:51:31.937Z,0
2018-02-11T02:52:33.645Z,0
2018-02-11T02:53:35.294Z,0
2018-02-11T02:54:36.672Z,0
2018-02-11T02:55:38.236Z,0
2018-02-11T02:56:39.727Z,0
2018-02-11T02:57:41.194Z,0
2018-02-11T02:58:42.672Z,0
2018-02-11T02:59:44.228Z,0
2018-02-11T03:00:45.799Z,0
2018-02-11T03:01:47.270Z,0
2018-02-11T03:02:48.797Z,0
2018-02-11T03:03:50.208Z,0
2018-02-11T03:04:51.641Z,0
2018-02-11T03:05:53.057Z,0
2018-02-11T03:06:54.800Z,0
2018-02-11T03:07:56.176Z,0
2018-02-11T03:08:57.593Z,0
2018-02-11T03:09:59.002Z,0
2018-02-11T03:11:00.422Z,0
2018-02-11T03:12:01.824Z,0
2018-02-11T03:13:03.243Z,0
2018-02-11T03:14:04.584Z,0
2018-02-11T03:15:05.982Z,0
2018-02-11T03:16:07.368Z,0
2018-02-11T03:17:08.843Z,0
2018-02-11T03:18:10.310Z,0
2018-02-11T03:19:12.044Z,0
2018-02-11T03:20:13.589Z,0
2018-02-11T03:21:15.152Z,0
2018-02-11T03:22:16.692Z,0
2018-02-11T03:23:18.214Z,0
2018-02-11T03:24:19.878Z,0
2018-02-11T03:25:21.281Z,0
2018-02-11T03:26:22.789Z,0
2018-02-11T03:27:24.500Z,0
2018-02-11T03:28:26.058Z,0
2018-02-11T03:29:27.650Z,0
2018-02-11T03:30:29.038Z,0
2018-02-11T03:31:30.608Z,0
2018-02-11T03:32:32.349Z,0
2018-02-11T03:33:33.912Z,0
2018-02-11T03:34:35.286Z,0
2018-02-11T03:35:36.701Z,0
2018-02-11T03:36:38.078Z,0
2018-02-11T03:37:39.571Z,0
2018-02-11T03:38:41.113Z,0
2018-02-11T03:39:42.933Z,0
2018-02-11T03:40:44.437Z,0
2018-02-11T03:41:45.871Z,0
2018-02-11T03:42:47.292Z,0
2018-02-11T03:43:48.697Z,0
2018-02-11T03:44:50.204Z,0
2018-02-11T03:45:51.698Z,0
2018-02-11T03:46:53.225Z,0
2018-02-11T03:47:54.748Z,0
2018-02-11T03:48:56.188Z,0
2018-02-11T03:49:57.730Z,0
2018-02-11T03:50:59.245Z,0
2018-02-11T03:52:00.646Z,0
2018-02-11T03:53:02.411Z,0
2018-02-11T03:54:04.128Z,0
2018-02-11T03:55:05.694Z,0
2018-02-11T03:56:07.214Z,0
2018-02-11T03:57:08.747Z,0
2018-02-11T03:58:10.285Z,0
2018-02-11T03:59:11.673Z,0
2018-02-11T04:00:13.097Z,0
2018-02-11T04:01:14.545Z,0
2018-02-11T04:02:15.977Z,0
2018-02-11T04:03:17.428Z,0
2018-02-11T04:04:18.943Z,0
2018-02-11T04:05:20.408Z,0
2018-02-11T04:06:21.891Z,0
2018-02-11T04:07:23.358Z,0
2018-02-11T04:08:24.755Z,0
2018-02-11T04:09:26.198Z,0
2018-02-11T04:10:27.639Z,0
2018-02-11T04:11:29.182Z,0
2018-02-11T04:12:30.557Z,0
2018-02-11T04:13:32.070Z,0
2018-02-11T04:14:33.493Z,0
2018-02-11T04:15:35.014Z,0
2018-02-11T04:16:36.828Z,0
2018-02-11T04:17:38.370Z,0
2018-02-11T04:18:39.796Z,0
2018-02-11T04:19:41.294Z,0
2018-02-11T04:20:42.700Z,0
2018-02-11T04:21:44.174Z,0
2018-02-11T04:22:45.722Z,0
2018-02-11T04:23:47.102Z,0
2018-02-11T04:24:48.952Z,0
2018-02-11T04:25:50.369Z,0
2018-02-11T04:26:51.821Z,0
2018-02-11T04:27:53.418Z,0
2018-02-11T04:28:54.885Z,0
2018-02-11T04:29:56.340Z,0
2018-02-11T04:30:57.780Z,0
2018-02-11T04:31:59.149Z,0
2018-02-11T04:33:00.580Z,0
2018-02-11T04:34:01.955Z,0
2018-02-11T04:35:03.371Z,0
2018-02-11T04:36:04.756Z,0
2018-02-11T04:37:06.144Z,0
2018-02-11T04:38:07.529Z,0
2018-02-11T04:39:08.948Z,0
2018-02-11T04:40:10.362Z,0
2018-02-11T04:41:11.762Z,0
2018-02-11T04:42:13.149Z,0
2018-02-11T04:43:14.513Z,0
2018-02-11T04:44:15.979Z,0
2018-02-11T04:45:17.377Z,0
2018-02-11T04:46:18.759Z,0
2018-02-11T04:47:20.168Z,0
2018-02-11T04:48:21.571Z,0
2018-02-11T04:49:23.003Z,0
2018-02-11T04:50:24.415Z,0
2018-02-11T04:51:25.794Z,0
2018-02-11T04:52:27.172Z,0
2018-02-11T04:53:28.576Z,0
2018-02-11T04:54:30.016Z,0
2018-02-11T04:55:31.439Z,0
2018-02-11T04:56:32.870Z,0
2018-02-11T04:57:34.272Z,0
2018-02-11T04:58:35.678Z,0
2018-02-11T04:59:37.091Z,0
2018-02-11T05:00:38.513Z,0
2018-02-11T05:01:39.937Z,0
2018-02-11T05:02:41.326Z,0
2018-02-11T05:03:42.803Z,0
2018-02-11T05:04:44.258Z,0
2018-02-11T05:05:45.664Z,0
2018-02-11T05:06:47.085Z,0
2018-02-11T05:07:48.505Z,0
2018-02-11T05:08:49.948Z,0
2018-02-11T05:09:51.383Z,0
2018-02-11T05:10:52.763Z,0
2018-02-11T05:11:54.190Z,0
2018-02-11T05:12:55.572Z,0
2018-02-11T05:13:56.992Z,0
2018-02-11T05:14:58.468Z,0
2018-02-11T05:15:59.922Z,0
2018-02-11T05:17:01.320Z,0
2018-02-11T05:18:02.722Z,0
2018-02-11T05:19:04.132Z,0
2018-02-11T05:20:05.543Z,0
2018-02-11T05:21:06.935Z,0
2018-02-11T05:22:08.343Z,0
2018-02-11T05:23:09.730Z,0
2018-02-11T05:24:11.129Z,0
2018-02-11T05:25:12.520Z,0
2018-02-11T05:26:13.942Z,0
2018-02-11T05:27:15.311Z,0
2018-02-11T05:28:16.725Z,0
2018-02-11T05:29:18.183Z,0
2018-02-11T05:30:19.577Z,0
2018-02-11T05:31:20.982Z,0
2018-02-11T05:32:22.447Z,0
2018-02-11T05:33:23.817Z,0
2018-02-11T05:34:25.276Z,0
2018-02-11T05:35:26.662Z,0
2018-02-11T05:36:28.076Z,0
2018-02-11T05:37:29.530Z,0
2018-02-11T05:38:30.906Z,0
2018-02-11T05:39:32.316Z,0
2018-02-11T05:40:33.751Z,0
2018-02-11T05:41:35.140Z,0
2018-02-11T05:42:36.531Z,0
2018-02-11T05:43:37.959Z,0
2018-02-11T05:44:39.344Z,0
2018-02-11T05:45:40.779Z,0
2018-02-11T05:46:42.195Z,0
2018-02-11T05:47:43.610Z,0
2018-02-11T05:48:45.007Z,0
2018-02-11T05:49:46.418Z,0
2018-02-11T05:50:47.839Z,0
2018-02-11T05:51:49.212Z,0
2018-02-11T05:52:50.629Z,0
2018-02-11T05:53:52.001Z,0
2018-02-11T05:54:53.484Z,0
2018-02-11T05:55:54.853Z,0
2018-02-11T05:56:56.270Z,0
2018-02-11T05:57:57.671Z,0
2018-02-11T05:58:59.123Z,0
2018-02-11T06:00:00.497Z,0
2018-02-11T06:01:01.954Z,0
2018-02-11T06:02:03.428Z,0
2018-02-11T06:03:04.814Z,0
2018-02-11T06:04:06.219Z,0
2018-02-11T06:05:07.631Z,0
2018-02-11T06:06:09.033Z,0
2018-02-11T06:07:10.440Z,0
2018-02-11T06:08:11.871Z,0
2018-02-11T06:09:13.264Z,0
2018-02-11T06:10:14.655Z,0
2018-02-11T06:11:16.083Z,0
2018-02-11T06:12:17.478Z,0
2018-02-11T06:13:18.886Z,0
2018-02-11T06:14:20.265Z,0
2018-02-11T06:15:21.691Z,0
2018-02-11T06:16:23.176Z,0
2018-02-11T06:17:24.602Z,0
2018-02-11T06:18:26.050Z,0
2018-02-11T06:19:27.474Z,0
2018-02-11T06:20:28.864Z,0
2018-02-11T06:21:30.277Z,0
2018-02-11T06:22:31.652Z,0
2018-02-11T06:23:33.090Z,0
2018-02-11T06:24:34.446Z,0
2018-02-11T06:25:35.829Z,0
2018-02-11T06:26:37.220Z,0
2018-02-11T06:27:38.637Z,0
2018-02-11T06:28:40.013Z,0
2018-02-11T06:29:41.416Z,0
2018-02-11T06:30:42.834Z,0
2018-02-11T06:31:44.262Z,0
2018-02-11T06:32:45.679Z,0
2018-02-11T06:33:47.097Z,0
2018-02-11T06:34:48.595Z,0
2018-02-11T06:35:49.995Z,0
2018-02-11T06:36:51.774Z,0
2018-02-11T06:37:53.241Z,0
2018-02-11T06:38:54.685Z,0
2018-02-11T06:39:56.110Z,0
2018-02-11T06:40:57.765Z,0
2018-02-11T06:41:59.183Z,0
2018-02-11T06:43:00.558Z,0
2018-02-11T06:44:02.000Z,0
2018-02-11T06:45:03.410Z,0
2018-02-11T06:46:04.847Z,0
2018-02-11T06:47:06.248Z,5
2018-02-11T06:48:07.685Z,5
2018-02-11T06:49:09.171Z,5
2018-02-11T06:50:10.613Z,5
2018-02-11T06:51:11.994Z,5
2018-02-11T06:52:13.481Z,0
2018-02-11T06:53:14.880Z,0
2018-02-11T06:54:16.260Z,0
2018-02-11T06:55:17.676Z,5
2018-02-11T06:56:19.103Z,5
2018-02-11T06:57:20.527Z,10
2018-02-11T06:58:21.960Z,10
2018-02-11T06:59:23.406Z,15
2018-02-11T07:00:24.851Z,15
2018-02-11T07:01:26.285Z,15
2018-02-11T07:02:27.745Z,15
2018-02-11T07:03:29.138Z,15
2018-02-11T07:04:30.609Z,15
2018-02-11T07:05:32.053Z,15
2018-02-11T07:06:33.493Z,20
2018-02-11T07:07:34.909Z,20
2018-02-11T07:08:36.319Z,20
2018-02-11T07:09:37.717Z,25
2018-02-11T07:10:39.111Z,20
2018-02-11T07:11:40.554Z,15
2018-02-11T07:12:42.021Z,15
2018-02-11T07:13:43.639Z,15
2018-02-11T07:14:45.068Z,20
2018-02-11T07:15:46.493Z,20
2018-02-11T07:16:47.930Z,25
2018-02-11T07:17:49.307Z,20
2018-02-11T07:18:50.742Z,25
2018-02-11T07:19:52.115Z,20
2018-02-11T07:20:53.604Z,20
2018-02-11T07:21:55.005Z,20
2018-02-11T07:22:56.406Z,25
2018-02-11T07:23:57.818Z,30
2018-02-11T07:24:59.220Z,30
2018-02-11T07:26:00.663Z,30
2018-02-11T07:27:02.095Z,30
2018-02-11T07:28:03.567Z,30
2018-02-11T07:29:04.949Z,25
2018-02-11T07:30:06.412Z,25
2018-02-11T07:31:07.824Z,30
2018-02-11T07:32:09.267Z,30
2018-02-11T07:33:10.699Z,25
2018-02-11T07:34:12.154Z,20
2018-02-11T07:35:13.649Z,15
2018-02-11T07:36:15.347Z,20
2018-02-11T07:37:16.856Z,25
2018-02-11T07:38:18.304Z,25
2018-02-11T07:39:19.734Z,25
2018-02-11T07:40:21.138Z,25
2018-02-11T07:41:22.569Z,20
2018-02-11T07:42:23.997Z,25
2018-02-11T07:43:25.447Z,25
2018-02-11T07:44:26.864Z,30
2018-02-11T07:45:28.321Z,40
2018-02-11T07:46:29.761Z,45
2018-02-11T07:47:31.166Z,35
2018-02-11T07:48:32.589Z,35
2018-02-11T07:49:34.037Z,35
2018-02-11T07:50:35.403Z,40
2018-02-11T07:51:36.850Z,40
2018-02-11T07:52:38.351Z,40
2018-02-11T07:53:39.753Z,50
2018-02-11T07:54:41.126Z,50
2018-02-11T07:55:42.583Z,50
2018-02-11T07:56:44.017Z,50
2018-02-11T07:57:45.422Z,60
2018-02-11T07:58:46.808Z,75
2018-02-11T07:59:48.237Z,70
2018-02-11T08:00:49.666Z,80
2018-02-11T08:01:51.079Z,80
2018-02-11T08:02:52.476Z,75
2018-02-11T08:03:53.958Z,55
2018-02-11T08:04:55.391Z,70
2018-02-11T08:05:56.844Z,70
2018-02-11T08:06:58.265Z,70
2018-02-11T08:07:59.663Z,75
2018-02-11T08:09:01.117Z,65
2018-02-11T08:10:02.488Z,75
2018-02-11T08:11:03.908Z,75
2018-02-11T08:12:05.364Z,80
2018-02-11T08:13:06.764Z,85
2018-02-11T08:14:08.220Z,90
2018-02-11T08:15:09.649Z,90
2018-02-11T08:16:11.060Z,95
2018-02-11T08:17:12.494Z,80
2018-02-11T08:18:13.874Z,65
2018-02-11T08:19:15.247Z,80
2018-02-11T08:20:16.633Z,75
2018-02-11T08:21:18.056Z,65
2018-02-11T08:22:19.464Z,55
2018-02-11T08:23:20.829Z,55
2018-02-11T08:24:22.214Z,60
2018-02-11T08:25:23.584Z,70
2018-02-11T08:26:25.028Z,65
2018-02-11T08:27:26.409Z,85
2018-02-11T08:28:27.812Z,105
2018-02-11T08:29:29.201Z,100
2018-02-11T08:30:30.575Z,80
2018-02-11T08:31:31.949Z,100
2018-02-11T08:32:33.354Z,115
2018-02-11T08:33:34.753Z,110
2018-02-11T08:34:36.142Z,110
2018-02-11T08:35:37.516Z,125
2018-02-11T08:36:38.911Z,100
2018-02-11T08:37:40.295Z,85
2018-02-11T08:38:41.672Z,115
2018-02-11T08:39:43.077Z,130
2018-02-11T08:40:44.469Z,140
2018-02-11T08:41:45.859Z,140
2018-02-11T08:42:47.258Z,155
2018-02-11T08:43:48.679Z,180
2018-02-11T08:44:50.094Z,135
2018-02-11T08:45:51.467Z,125
2018-02-11T08:46:52.898Z,135
2018-02-11T08:47:54.309Z,140
2018-02-11T08:48:55.701Z,140
2018-02-11T08:49:57.107Z,140
2018-02-11T08:50:58.544Z,135
2018-02-11T08:51:59.952Z,135
2018-02-11T08:53:01.382Z,145
2018-02-11T08:54:02.806Z,165
2018-02-11T08:55:04.197Z,190
2018-02-11T08:56:05.589Z,200
2018-02-11T08:57:07.040Z,195
2018-02-11T08:58:08.501Z,165
2018-02-11T08:59:09.934Z,170
2018-02-11T09:00:11.339Z,185
2018-02-11T09:01:12.778Z,195
2018-02-11T09:02:14.201Z,190
2018-02-11T09:03:15.651Z,185
2018-02-11T09:04:17.102Z,185
2018-02-11T09:05:18.603Z,165
2018-02-11T09:06:20.023Z,145
2018-02-11T09:07:21.407Z,115
2018-02-11T09:08:22.791Z,90
2018-02-11T09:09:24.180Z,80
2018-02-11T09:10:25.554Z,75
2018-02-11T09:11:26.929Z,75
2018-02-11T09:12:28.324Z,75
2018-02-11T09:13:29.726Z,80
2018-02-11T09:14:31.102Z,85
2018-02-11T09:15:32.476Z,70
2018-02-11T09:16:33.860Z,70
2018-02-11T09:17:35.341Z,75
2018-02-11T09:18:36.709Z,70
2018-02-11T09:19:38.173Z,65
2018-02-11T09:20:39.544Z,75
2018-02-11T09:21:41.016Z,75
2018-02-11T09:22:42.404Z,80
2018-02-11T09:23:43.824Z,85
2018-02-11T09:24:45.211Z,90
2018-02-11T09:25:46.577Z,85
2018-02-11T09:26:48.048Z,90
2018-02-11T09:27:49.514Z,105
2018-02-11T09:28:50.948Z,85
2018-02-11T09:29:52.324Z,85
2018-02-11T09:30:53.783Z,115
2018-02-11T09:31:55.190Z,130
2018-02-11T09:32:56.657Z,160
2018-02-11T09:33:58.076Z,170
2018-02-11T09:34:59.507Z,200
2018-02-11T09:36:00.962Z,220
2018-02-11T09:37:02.423Z,210
2018-02-11T09:38:03.881Z,275
2018-02-11T09:39:05.376Z,225
2018-02-11T09:40:06.804Z,200
2018-02-11T09:41:08.293Z,200
2018-02-11T09:42:09.731Z,285
2018-02-11T09:43:11.110Z,190
2018-02-11T09:44:12.526Z,170
2018-02-11T09:45:13.953Z,275
2018-02-11T09:46:15.332Z,280
2018-02-11T09:47:16.726Z,255
2018-02-11T09:48:18.185Z,255
2018-02-11T09:49:19.595Z,270
2018-02-11T09:50:21.021Z,385
2018-02-11T09:51:22.353Z,405
2018-02-11T09:52:23.827Z,345
2018-02-11T09:53:25.289Z,290
2018-02-11T09:54:26.718Z,240
2018-02-11T09:55:28.151Z,235
2018-02-11T09:56:29.546Z,180
2018-02-11T09:57:30.948Z,190
2018-02-11T09:58:32.360Z,160
2018-02-11T09:59:33.833Z,140
2018-02-11T10:00:35.199Z,240
2018-02-11T10:01:38.171Z,240
2018-02-11T10:02:39.614Z,265
2018-02-11T10:03:41.083Z,260
2018-02-11T10:04:42.504Z,255
2018-02-11T10:05:43.893Z,335
2018-02-11T10:06:45.306Z,265
2018-02-11T10:07:46.697Z,250
2018-02-11T10:08:48.069Z,245
2018-02-11T10:09:49.462Z,230
2018-02-11T10:10:50.861Z,200
2018-02-11T10:11:52.299Z,215
2018-02-11T10:12:53.730Z,210
2018-02-11T10:13:55.113Z,180
2018-02-11T10:14:56.612Z,180
2018-02-11T10:15:58.027Z,120
2018-02-11T10:16:59.411Z,155
2018-02-11T10:18:00.803Z,110
2018-02-11T10:19:02.252Z,100
2018-02-11T10:20:03.762Z,180
2018-02-11T10:21:05.237Z,160
2018-02-11T10:22:06.616Z,160
2018-02-11T10:23:08.212Z,180
2018-02-11T10:24:09.654Z,180
2018-02-11T10:25:11.111Z,185
2018-02-11T10:26:12.532Z,205
2018-02-11T10:27:14.008Z,160
2018-02-11T10:28:15.395Z,120
2018-02-11T10:29:16.997Z,120
2018-02-11T10:30:18.440Z,145
2018-02-11T10:31:19.816Z,120
2018-02-11T10:32:21.246Z,90
2018-02-11T10:33:22.721Z,110
2018-02-11T10:34:24.152Z,100
2018-02-11T10:35:25.596Z,95
2018-02-11T10:36:26.999Z,125
2018-02-11T10:37:28.401Z,190
2018-02-11T10:38:29.805Z,210
2018-02-11T10:39:31.197Z,210
2018-02-11T10:40:32.880Z,235
2018-02-11T10:41:34.269Z,260
2018-02-11T10:42:35.704Z,220
2018-02-11T10:43:37.114Z,230
2018-02-11T10:44:38.698Z,270
2018-02-11T10:45:40.040Z,215
2018-02-11T10:46:41.522Z,235
2018-02-11T10:47:42.991Z,400
2018-02-11T10:48:44.410Z,410
2018-02-11T10:49:45.882Z,265
2018-02-11T10:50:47.288Z,255
2018-02-11T10:51:48.756Z,375
2018-02-11T10:52:50.168Z,290
2018-02-11T10:53:51.990Z,405
2018-02-11T10:54:53.422Z,345
2018-02-11T10:55:54.876Z,300
2018-02-11T10:56:56.336Z,285
2018-02-11T10:57:57.732Z,340
2018-02-11T10:58:59.416Z,430
2018-02-11T11:00:00.754Z,495
2018-02-11T11:01:02.207Z,460
2018-02-11T11:02:03.687Z,395
2018-02-11T11:03:05.460Z,450
2018-02-11T11:04:06.856Z,585
2018-02-11T11:05:09.132Z,620
2018-02-11T11:06:10.509Z,615
2018-02-11T11:07:11.908Z,555
2018-02-11T11:08:13.340Z,450
2018-02-11T11:09:14.729Z,485
2018-02-11T11:10:16.252Z,480
2018-02-11T11:11:17.690Z,380
2018-02-11T11:12:19.293Z,420
2018-02-11T11:13:20.654Z,370
2018-02-11T11:14:22.041Z,285
2018-02-11T11:15:23.492Z,325
2018-02-11T11:16:25.045Z,285
2018-02-11T11:17:26.358Z,235
2018-02-11T11:18:27.751Z,255
2018-02-11T11:19:29.273Z,350
2018-02-11T11:20:30.714Z,760
2018-02-11T11:21:32.105Z,485
2018-02-11T11:22:33.498Z,595
2018-02-11T11:23:35.223Z,565
2018-02-11T11:24:36.672Z,470
2018-02-11T11:25:38.146Z,390
2018-02-11T11:26:39.690Z,345
2018-02-11T11:27:41.095Z,325
2018-02-11T11:28:42.533Z,320
2018-02-11T11:29:44.022Z,385
2018-02-11T11:30:45.497Z,295
2018-02-11T11:31:46.939Z,250
2018-02-11T11:32:48.328Z,350
2018-02-11T11:33:49.773Z,465
2018-02-11T11:34:51.420Z,540
2018-02-11T11:35:52.744Z,585
2018-02-11T11:36:54.271Z,460
2018-02-11T11:37:55.671Z,430
2018-02-11T11:38:57.152Z,280
2018-02-11T11:39:58.636Z,240
2018-02-11T11:41:00.099Z,250
2018-02-11T11:42:01.516Z,305
2018-02-11T11:43:03.194Z,360
2018-02-11T11:44:04.587Z,275
2018-02-11T11:45:06.258Z,245
2018-02-11T11:46:07.670Z,300
2018-02-11T11:47:09.148Z,490
2018-02-11T11:48:10.544Z,570
2018-02-11T11:49:11.968Z,795
2018-02-11T11:50:13.372Z,1125
2018-02-11T11:51:14.823Z,1060
2018-02-11T11:52:16.225Z,790
2018-02-11T11:53:17.609Z,770
2018-02-11T11:54:19.010Z,710
2018-02-11T11:55:20.380Z,655
2018-02-11T11:56:21.806Z,680
2018-02-11T11:57:23.211Z,685
2018-02-11T11:58:24.640Z,575
2018-02-11T11:59:26.040Z,375
2018-02-11T12:00:27.449Z,460
2018-02-11T12:01:28.888Z,580
2018-02-11T12:02:30.287Z,545
2018-02-11T12:03:31.676Z,465
2018-02-11T12:04:33.079Z,440
2018-02-11T12:05:34.504Z,410
2018-02-11T12:06:35.908Z,385
2018-02-11T12:07:37.310Z,320
2018-02-11T12:08:38.787Z,310
2018-02-11T12:09:40.173Z,300
2018-02-11T12:10:41.566Z,315
2018-02-11T12:11:42.983Z,345
2018-02-11T12:12:44.429Z,310
2018-02-11T12:13:45.815Z,295
2018-02-11T12:14:47.202Z,280
2018-02-11T12:15:48.648Z,215
2018-02-11T12:16:50.059Z,155
2018-02-11T12:17:51.446Z,115
2018-02-11T12:18:52.821Z,110
2018-02-11T12:19:54.199Z,85
2018-02-11T12:20:55.615Z,70
2018-02-11T12:21:57.034Z,50
2018-02-11T12:22:58.499Z,40
2018-02-11T12:23:59.878Z,35
2018-02-11T12:25:01.275Z,30
2018-02-11T12:26:02.663Z,30
2018-02-11T12:27:04.059Z,30
2018-02-11T12:28:05.432Z,25
2018-02-11T12:29:06.820Z,30
2018-02-11T12:30:08.224Z,40
2018-02-11T12:31:09.599Z,45
2018-02-11T12:32:10.966Z,60
2018-02-11T12:33:12.346Z,60
2018-02-11T12:34:13.742Z,60
2018-02-11T12:35:15.114Z,70
2018-02-11T12:36:16.491Z,75
2018-02-11T12:37:17.874Z,85
2018-02-11T12:38:19.268Z,90
2018-02-11T12:39:20.652Z,100
2018-02-11T12:40:22.030Z,120
2018-02-11T12:41:23.448Z,115
2018-02-11T12:42:24.818Z,150
2018-02-11T12:43:26.216Z,180
2018-02-11T12:44:27.630Z,145
2018-02-11T12:45:29.082Z,120
2018-02-11T12:46:30.451Z,125
2018-02-11T12:47:31.822Z,130
2018-02-11T12:48:33.212Z,105
2018-02-11T12:49:34.595Z,85
2018-02-11T12:50:35.961Z,95
2018-02-11T12:51:37.352Z,105
2018-02-11T12:52:38.760Z,115
2018-02-11T12:53:40.135Z,100
2018-02-11T12:54:41.514Z,95
2018-02-11T12:55:42.897Z,95
2018-02-11T12:56:44.290Z,95
2018-02-11T12:57:45.674Z,125
2018-02-11T12:58:47.061Z,140
2018-02-11T12:59:48.433Z,110
2018-02-11T13:00:49.848Z,95
2018-02-11T13:01:51.250Z,95
2018-02-11T13:02:52.630Z,100
2018-02-11T13:03:54.069Z,100
2018-02-11T13:04:55.439Z,85
2018-02-11T13:05:56.802Z,95
2018-02-11T13:06:58.223Z,85
2018-02-11T13:07:59.639Z,95
2018-02-11T13:09:01.000Z,115
2018-02-11T13:10:02.379Z,105
2018-02-11T13:11:03.789Z,125
2018-02-11T13:12:05.184Z,170
2018-02-11T13:13:06.585Z,180
2018-02-11T13:14:08.011Z,155
2018-02-11T13:15:09.417Z,150
2018-02-11T13:16:10.820Z,165
2018-02-11T13:17:12.274Z,195
2018-02-11T13:18:13.721Z,205
2018-02-11T13:19:15.162Z,190
2018-02-11T13:20:16.579Z,180
2018-02-11T13:21:18.000Z,180
2018-02-11T13:22:19.366Z,195
2018-02-11T13:23:20.734Z,185
2018-02-11T13:24:22.155Z,170
2018-02-11T13:25:23.566Z,145
2018-02-11T13:26:24.979Z,175
2018-02-11T13:27:26.377Z,210
2018-02-11T13:28:27.782Z,220
2018-02-11T13:29:29.177Z,275
2018-02-11T13:30:30.641Z,350
2018-02-11T13:31:31.976Z,370
2018-02-11T13:32:33.359Z,380
2018-02-11T13:33:34.739Z,450
2018-02-11T13:34:36.119Z,425
2018-02-11T13:35:37.563Z,350
2018-02-11T13:36:38.922Z,275
2018-02-11T13:37:40.342Z,195
2018-02-11T13:38:41.714Z,185
2018-02-11T13:39:43.128Z,210
2018-02-11T13:40:44.509Z,215
2018-02-11T13:41:45.969Z,235
2018-02-11T13:42:47.396Z,230
2018-02-11T13:43:48.863Z,240
2018-02-11T13:44:50.338Z,275
2018-02-11T13:45:51.988Z,290
2018-02-11T13:46:53.411Z,260
2018-02-11T13:47:54.844Z,255
2018-02-11T13:48:56.217Z,270
2018-02-11T13:49:57.601Z,270
2018-02-11T13:50:59.059Z,275
2018-02-11T13:52:00.481Z,260
2018-02-11T13:53:01.884Z,230
2018-02-11T13:54:03.647Z,215
2018-02-11T13:55:05.296Z,210
2018-02-11T13:56:06.752Z,185
2018-02-11T13:57:08.248Z,165
2018-02-11T13:58:09.713Z,185
2018-02-11T13:59:11.170Z,215
2018-02-11T14:00:12.567Z,230
2018-02-11T14:01:13.975Z,235
2018-02-11T14:02:15.357Z,235
2018-02-11T14:03:16.723Z,240
2018-02-11T14:04:18.187Z,250
2018-02-11T14:05:19.564Z,230
2018-02-11T14:06:21.015Z,190
2018-02-11T14:07:22.380Z,170
2018-02-11T14:08:23.868Z,195
2018-02-11T14:09:25.291Z,230
2018-02-11T14:10:26.737Z,250
2018-02-11T14:11:28.297Z,265
2018-02-11T14:12:29.742Z,250
2018-02-11T14:13:31.189Z,240
2018-02-11T14:14:32.617Z,235
2018-02-11T14:15:34.036Z,240
2018-02-11T14:16:35.790Z,245
2018-02-11T14:17:37.472Z,285
2018-02-11T14:18:39.130Z,315
2018-02-11T14:19:40.772Z,330
2018-02-11T14:20:42.356Z,355
2018-02-11T14:21:43.961Z,365
2018-02-11T14:22:45.392Z,355
2018-02-11T14:23:46.759Z,340
2018-02-11T14:24:48.240Z,335
2018-02-11T14:25:49.952Z,340
2018-02-11T14:26:51.514Z,345
2018-02-11T14:27:52.886Z,345
2018-02-11T14:28:54.291Z,350
2018-02-11T14:29:55.732Z,350
2018-02-11T14:30:57.393Z,350
2018-02-11T14:31:59.108Z,335
2018-02-11T14:33:00.548Z,335
2018-02-11T14:34:02.190Z,340
2018-02-11T14:35:03.561Z,355
2018-02-11T14:36:05.016Z,360
2018-02-11T14:37:06.408Z,375
2018-02-11T14:38:08.385Z,355
2018-02-11T14:39:10.017Z,325
2018-02-11T14:40:11.653Z,295